createdAt,value
2018-09-25T00:00:29.161Z,26.83
2018-09-25T00:03:02.791Z,27.60
2018-09-25T00:05:36.665Z,29.37
2018-09-25T00:08:10.482Z,27.30
2018-09-25T00:10:44.183Z,27.77
2018-09-25T00:13:17.950Z,28.40
2018-09-25T00:15:51.626Z,24.90
2018-09-25T00:18:25.381Z,29.20
2018-09-25T00:20:59.250Z,26.70
2018-09-25T00:23:32.842Z,25.70
2018-09-25T00:26:06.593Z,26.07
2018-09-25T00:28:40.367Z,25.07
2018-09-25T00:31:14.516Z,29.17
2018-09-25T00:33:48.345Z,25.33
2018-09-25T00:36:22.351Z,26.20
2018-09-25T00:38:56.010Z,25.20
2018-09-25T00:41:30.033Z,26.37
2018-09-25T00:44:04.129Z,27.00
2018-09-25T00:46:37.825Z,28.53
2018-09-25T00:49:11.805Z,28.87
2018-09-25T00:51:45.567Z,26.27
2018-09-25T00:54:19.296Z,26.50
2018-09-25T00:56:53.151Z,27.27
2018-09-25T00:59:26.841Z,25.07
2018-09-25T01:02:00.529Z,27.43
2018-09-25T01:04:34.286Z,25.23
2018-09-25T01:07:08.144Z,26.30
2018-09-25T01:09:42.392Z,26.77
2018-09-25T01:12:16.077Z,26.97
2018-09-25T01:14:49.849Z,26.43
2018-09-25T01:17:23.698Z,25.40
2018-09-25T01:19:57.361Z,28.17
2018-09-25T01:22:31.046Z,25.50
2018-09-25T01:25:04.896Z,29.00
2018-09-25T01:27:38.602Z,26.17
2018-09-25T01:30:12.441Z,25.47
2018-09-25T01:32:46.239Z,26.37
2018-09-25T01:35:20.006Z,28.03
2018-09-25T01:37:54.171Z,25.90
2018-09-25T01:40:28.017Z,29.77
2018-09-25T01:43:01.977Z,25.50
2018-09-25T01:45:35.818Z,27.27
2018-09-25T01:48:09.676Z,28.03
2018-09-25T01:50:43.342Z,27.10
2018-09-25T01:53:17.058Z,29.67
2018-09-25T01:55:51.010Z,26.13
2018-09-25T01:58:24.854Z,28.73
2018-09-25T02:00:58.598Z,27.03
2018-09-25T02:03:32.350Z,26.00
2018-09-25T02:06:06.134Z,29.10
2018-09-25T02:08:39.854Z,26.03
2018-09-25T02:11:13.625Z,33.30
2018-09-25T02:13:47.151Z,26.50
2018-09-25T02:16:20.993Z,26.43
2018-09-25T02:18:54.918Z,31.20
2018-09-25T02:21:28.705Z,34.63
2018-09-25T02:24:02.490Z,27.83
2018-09-25T02:26:36.299Z,30.50
2018-09-25T02:29:10.103Z,28.83
2018-09-25T02:31:43.721Z,28.10
2018-09-25T02:34:17.672Z,24.90
2018-09-25T02:36:51.286Z,27.27
2018-09-25T02:39:25.090Z,31.53
2018-09-25T02:41:58.894Z,26.70
2018-09-25T02:44:32.641Z,31.10
2018-09-25T02:47:06.310Z,27.73
2018-09-25T02:49:40.113Z,26.47
2018-09-25T02:52:13.813Z,26.70
2018-09-25T02:54:47.618Z,33.43
2018-09-25T02:57:21.433Z,26.80
2018-09-25T02:59:55.281Z,27.63
2018-09-25T03:02:28.947Z,26.93
2018-09-25T03:05:02.600Z,25.03
2018-09-25T03:07:36.424Z,29.60
2018-09-25T03:10:10.438Z,29.60
2018-09-25T03:12:44.110Z,28.70
2018-09-25T03:15:17.797Z,28.07
2018-09-25T03:17:51.557Z,30.03
2018-09-25T03:20:25.503Z,25.47
2018-09-25T03:22:59.289Z,26.03
2018-09-25T03:25:33.092Z,29.03
2018-09-25T03:28:06.779Z,30.73
2018-09-25T03:30:40.618Z,27.60
2018-09-25T03:33:14.277Z,28.50
2018-09-25T03:35:48.065Z,34.03
2018-09-25T03:38:21.926Z,33.57
2018-09-25T03:40:55.746Z,29.30
2018-09-25T03:43:29.382Z,29.67
2018-09-25T03:46:03.269Z,30.50
2018-09-25T03:48:37.001Z,32.07
2018-09-25T03:51:10.735Z,29.77
2018-09-25T03:53:44.497Z,28.07
2018-09-25T03:56:18.310Z,28.43
2018-09-25T03:58:51.993Z,27.60
2018-09-25T04:01:25.819Z,28.20
2018-09-25T04:03:59.534Z,27.90
2018-09-25T04:06:33.374Z,30.13
2018-09-25T04:09:07.254Z,28.70
2018-09-25T04:11:41.069Z,27.10
2018-09-25T04:14:14.695Z,28.57
2018-09-25T04:16:48.491Z,32.07
2018-09-25T04:19:22.150Z,27.50
2018-09-25T04:21:56.000Z,32.47
2018-09-25T04:24:29.689Z,35.40
2018-09-25T04:27:03.525Z,31.00
2018-09-25T04:29:37.378Z,35.20
2018-09-25T04:32:11.029Z,32.00
2018-09-25T04:34:44.728Z,35.30
2018-09-25T04:37:18.415Z,30.67
2018-09-25T04:39:52.111Z,31.93
2018-09-25T04:42:25.957Z,34.17
2018-09-25T04:45:00.763Z,33.13
2018-09-25T04:47:34.434Z,31.87
2018-09-25T04:50:08.110Z,34.40
2018-09-25T04:52:41.969Z,32.07
2018-09-25T04:55:15.669Z,34.23
2018-09-25T04:57:49.510Z,35.80
2018-09-25T05:00:23.523Z,32.00
2018-09-25T05:02:57.349Z,34.97
2018-09-25T05:05:31.429Z,36.73
2018-09-25T05:08:05.074Z,36.97
2018-09-25T05:10:38.956Z,32.80
2018-09-25T05:13:12.665Z,31.87
2018-09-25T05:15:46.341Z,33.47
2018-09-25T05:18:20.162Z,33.30
2018-09-25T05:20:53.850Z,33.23
2018-09-25T05:23:27.642Z,32.77
2018-09-25T05:26:01.233Z,34.33
2018-09-25T05:28:35.043Z,38.20
2018-09-25T05:31:08.860Z,33.73
2018-09-25T05:33:42.757Z,37.47
2018-09-25T05:36:16.549Z,42.87
2018-09-25T05:38:50.312Z,35.43
2018-09-25T05:41:23.983Z,33.33
2018-09-25T05:43:57.723Z,37.77
2018-09-25T05:46:32.752Z,35.20
2018-09-25T05:49:06.601Z,34.70
2018-09-25T05:51:40.347Z,33.67
2018-09-25T05:54:14.250Z,33.90
2018-09-25T05:56:47.926Z,30.97
2018-09-25T05:59:22.019Z,38.40
2018-09-25T06:01:55.637Z,30.33
2018-09-25T06:04:29.282Z,37.30
2018-09-25T06:07:02.913Z,36.13
2018-09-25T06:09:36.748Z,39.30
2018-09-25T06:12:10.510Z,30.70
2018-09-25T06:14:44.475Z,31.73
2018-09-25T06:17:18.089Z,33.50
2018-09-25T06:19:51.813Z,31.10
2018-09-25T06:22:25.608Z,38.50
2018-09-25T06:24:59.237Z,31.40
2018-09-25T06:27:33.272Z,34.20
2018-09-25T06:30:07.170Z,39.63
2018-09-25T06:32:40.810Z,32.63
2018-09-25T06:35:14.685Z,33.17
2018-09-25T06:37:48.423Z,34.13
2018-09-25T06:40:22.314Z,31.60
2018-09-25T06:42:56.055Z,37.03
2018-09-25T06:45:29.765Z,31.40
2018-09-25T06:48:03.578Z,30.80
2018-09-25T06:50:37.353Z,52.77
2018-09-25T06:53:10.990Z,33.03
2018-09-25T06:55:44.713Z,30.30
2018-09-25T06:58:18.333Z,31.27
2018-09-25T07:00:52.211Z,36.70
2018-09-25T07:03:25.753Z,33.40
2018-09-25T07:05:59.646Z,37.20
2018-09-25T07:08:33.470Z,35.77
2018-09-25T07:11:07.185Z,33.80
2018-09-25T07:13:40.832Z,32.70
2018-09-25T07:16:14.796Z,32.83
2018-09-25T07:18:48.407Z,31.20
2018-09-25T07:21:22.212Z,30.77
2018-09-25T07:23:56.337Z,33.20
2018-09-25T07:26:30.695Z,38.67
2018-09-25T07:29:04.425Z,32.70
2018-09-25T07:31:38.334Z,32.23
2018-09-25T07:34:12.121Z,29.43
2018-09-25T07:36:45.870Z,29.53
2018-09-25T07:39:19.837Z,28.50
2018-09-25T07:41:53.582Z,28.90
2018-09-25T07:44:27.349Z,30.27
2018-09-25T07:47:01.150Z,30.30
2018-09-25T07:49:34.840Z,33.17
2018-09-25T07:52:08.658Z,31.30
2018-09-25T07:54:42.369Z,35.00
2018-09-25T07:57:16.382Z,31.00
2018-09-25T07:59:50.301Z,29.77
2018-09-25T08:02:24.046Z,30.13
2018-09-25T08:04:57.822Z,30.43
2018-09-25T08:07:31.561Z,33.40
2018-09-25T08:10:05.362Z,28.60
2018-09-25T08:12:39.189Z,27.90
2018-09-25T08:15:12.778Z,31.83
2018-09-25T08:17:46.457Z,25.97
2018-09-25T08:20:20.259Z,27.17
2018-09-25T08:22:54.327Z,29.30
2018-09-25T08:25:27.836Z,31.10
2018-09-25T08:28:01.461Z,27.20
2018-09-25T08:30:35.214Z,31.50
2018-09-25T08:33:08.972Z,30.53
2018-09-25T08:35:43.104Z,28.10
2018-09-25T08:38:16.926Z,29.40
2018-09-25T08:40:50.511Z,26.70
2018-09-25T08:43:24.461Z,28.27
2018-09-25T08:45:58.315Z,26.33
2018-09-25T08:48:31.992Z,29.60
2018-09-25T08:51:05.686Z,28.57
2018-09-25T08:53:39.425Z,25.07
2018-09-25T08:56:13.402Z,27.13
2018-09-25T08:58:47.256Z,26.40
2018-09-25T09:01:21.146Z,23.70
2018-09-25T09:03:54.844Z,25.73
2018-09-25T09:06:28.676Z,30.50
2018-09-25T09:09:02.390Z,28.57
2018-09-25T09:11:36.094Z,26.23
2018-09-25T09:14:09.891Z,28.03
2018-09-25T09:16:43.411Z,26.00
2018-09-25T09:19:17.230Z,26.50
2018-09-25T09:21:50.881Z,33.23
2018-09-25T09:24:24.543Z,27.10
2018-09-25T09:26:58.228Z,26.17
2018-09-25T09:29:32.130Z,29.97
2018-09-25T09:32:05.976Z,24.50
2018-09-25T09:34:39.977Z,27.30
2018-09-25T09:37:13.597Z,28.50
2018-09-25T09:39:47.222Z,31.67
2018-09-25T09:42:21.040Z,24.80
2018-09-25T09:44:54.881Z,25.37
2018-09-25T09:47:28.932Z,25.50
2018-09-25T09:50:02.676Z,25.03
2018-09-25T09:52:36.570Z,25.63
2018-09-25T09:55:10.358Z,25.87
2018-09-25T09:57:44.267Z,24.40
2018-09-25T10:00:17.973Z,26.23
2018-09-25T10:02:51.893Z,28.00
2018-09-25T10:05:25.898Z,24.77
2018-09-25T10:07:59.541Z,24.87
2018-09-25T10:10:33.324Z,26.70
2018-09-25T10:13:06.994Z,24.80
2018-09-25T10:15:40.843Z,24.17
2018-09-25T10:18:14.663Z,24.00
2018-09-25T10:20:48.414Z,24.60
2018-09-25T10:23:22.226Z,24.57
2018-09-25T10:25:56.938Z,24.00
2018-09-25T10:28:30.594Z,26.80
2018-09-25T10:31:04.236Z,25.20
2018-09-25T10:33:38.109Z,24.00
2018-09-25T10:36:11.869Z,24.60
2018-09-25T10:38:45.458Z,29.47
2018-09-25T10:41:19.281Z,26.40
2018-09-25T10:43:52.938Z,24.80
2018-09-25T10:46:27.813Z,26.53
2018-09-25T10:49:01.712Z,26.57
2018-09-25T10:51:35.548Z,26.30
2018-09-25T10:54:09.723Z,29.50
2018-09-25T10:56:43.589Z,25.10
2018-09-25T10:59:17.335Z,25.63
2018-09-25T11:01:51.238Z,28.93
2018-09-25T11:04:25.151Z,25.43
2018-09-25T11:06:58.809Z,23.80
2018-09-25T11:09:32.536Z,24.10
2018-09-25T11:12:06.295Z,24.80
2018-09-25T11:14:39.918Z,25.57
2018-09-25T11:17:13.633Z,27.43
2018-09-25T11:19:47.465Z,25.47
2018-09-25T11:22:21.142Z,24.50
2018-09-25T11:24:54.868Z,26.83
2018-09-25T11:27:28.678Z,24.47
2018-09-25T11:30:02.406Z,25.87
2018-09-25T11:32:36.297Z,25.83
2018-09-25T11:35:09.949Z,24.50
2018-09-25T11:37:43.805Z,26.00
2018-09-25T11:40:17.750Z,27.23
2018-09-25T11:42:51.461Z,24.80
2018-09-25T11:45:25.190Z,24.77
2018-09-25T11:47:59.011Z,25.27
2018-09-25T11:50:32.761Z,26.07
2018-09-25T11:53:06.443Z,24.50
2018-09-25T11:55:40.154Z,23.83
2018-09-25T11:58:14.085Z,24.70
2018-09-25T12:00:47.645Z,26.63
2018-09-25T12:03:21.493Z,24.07
2018-09-25T12:05:55.279Z,25.17
2018-09-25T12:08:29.347Z,25.20
2018-09-25T12:11:03.196Z,25.70
2018-09-25T12:13:36.966Z,24.10
2018-09-25T12:16:10.777Z,25.93
2018-09-25T12:18:44.438Z,28.50
2018-09-25T12:21:18.121Z,24.80
2018-09-25T12:23:51.868Z,25.00
2018-09-25T12:26:25.786Z,25.23
2018-09-25T12:28:59.608Z,25.30
2018-09-25T12:31:33.245Z,23.00
2018-09-25T12:34:06.980Z,26.33
2018-09-25T12:36:40.866Z,26.80
2018-09-25T12:39:14.753Z,25.03
2018-09-25T12:41:48.457Z,24.33
2018-09-25T12:44:22.223Z,24.70
2018-09-25T12:46:56.125Z,24.90
2018-09-25T12:49:30.223Z,25.63
2018-09-25T12:52:03.889Z,24.70
2018-09-25T12:54:37.617Z,23.43
2018-09-25T12:57:11.294Z,27.00
2018-09-25T12:59:45.054Z,29.83
2018-09-25T13:02:18.653Z,23.43
2018-09-25T13:04:52.347Z,27.17
2018-09-25T13:07:26.176Z,25.80
2018-09-25T13:09:59.906Z,23.60
2018-09-25T13:12:33.803Z,30.80
2018-09-25T13:15:07.609Z,26.00
2018-09-25T13:17:41.297Z,23.93
2018-09-25T13:20:15.230Z,25.30
2018-09-25T13:22:48.862Z,23.83
2018-09-25T13:25:22.638Z,25.37
2018-09-25T13:27:56.770Z,27.60
2018-09-25T13:30:30.564Z,24.27
2018-09-25T13:33:04.364Z,25.67
2018-09-25T13:35:38.122Z,26.23
2018-09-25T13:38:11.880Z,24.63
2018-09-25T13:40:45.559Z,24.00
2018-09-25T13:43:19.801Z,24.43
2018-09-25T13:45:53.529Z,24.00
2018-09-25T13:48:27.314Z,23.93
2018-09-25T13:51:01.109Z,25.10
2018-09-25T13:53:35.047Z,25.07
2018-09-25T13:56:08.953Z,24.80
2018-09-25T13:58:42.697Z,25.23
2018-09-25T14:01:16.352Z,26.40
2018-09-25T14:03:50.115Z,24.70
2018-09-25T14:06:23.910Z,25.27
2018-09-25T14:08:57.831Z,26.53
2018-09-25T14:11:31.564Z,24.83
2018-09-25T14:14:05.177Z,28.33
2018-09-25T14:16:39.038Z,23.80
2018-09-25T14:19:12.854Z,24.33
2018-09-25T14:21:46.534Z,25.70
2018-09-25T14:24:20.453Z,25.87
2018-09-25T14:26:54.357Z,24.70
2018-09-25T14:29:28.228Z,27.20
2018-09-25T14:32:01.990Z,22.37
2018-09-25T14:34:35.827Z,28.47
2018-09-25T14:37:09.482Z,26.30
2018-09-25T14:39:43.400Z,24.43
2018-09-25T14:42:17.181Z,23.97
2018-09-25T14:44:51.118Z,25.37
2018-09-25T14:47:25.010Z,25.20
2018-09-25T14:49:58.741Z,28.20
2018-09-25T14:52:32.483Z,24.47
2018-09-25T14:55:06.225Z,26.30
2018-09-25T14:57:39.857Z,24.77
2018-09-25T15:00:13.807Z,25.00
2018-09-25T15:02:47.344Z,25.73
2018-09-25T15:05:21.130Z,23.70
2018-09-25T15:07:54.954Z,24.50
2018-09-25T15:10:29.047Z,23.73
2018-09-25T15:13:02.798Z,25.93
2018-09-25T15:15:36.473Z,26.83
2018-09-25T15:18:10.333Z,27.00
2018-09-25T15:20:44.152Z,24.87
2018-09-25T15:23:17.860Z,25.27
2018-09-25T15:25:51.629Z,26.83
2018-09-25T15:28:25.583Z,26.83
2018-09-25T15:30:59.307Z,24.73
2018-09-25T15:33:32.967Z,24.07
2018-09-25T15:36:06.642Z,28.80
2018-09-25T15:38:40.308Z,25.20
2018-09-25T15:41:14.227Z,25.20
2018-09-25T15:43:48.039Z,24.97
2018-09-25T15:46:21.659Z,24.80
2018-09-25T15:48:55.367Z,24.43
2018-09-25T15:51:29.145Z,25.60
2018-09-25T15:54:02.876Z,23.70
2018-09-25T15:56:36.614Z,25.63
2018-09-25T15:59:10.332Z,25.93
2018-09-25T16:01:44.149Z,26.23
2018-09-25T16:04:18.030Z,23.90
2018-09-25T16:06:51.902Z,24.50
2018-09-25T16:09:25.578Z,25.60
2018-09-25T16:11:59.409Z,24.10
2018-09-25T16:14:33.214Z,25.70
2018-09-25T16:17:06.863Z,26.40
2018-09-25T16:19:40.702Z,26.73
2018-09-25T16:22:14.385Z,25.60
2018-09-25T16:24:48.234Z,23.87
2018-09-25T16:27:22.138Z,24.80
2018-09-25T16:29:55.736Z,24.43
2018-09-25T16:32:29.451Z,24.40
2018-09-25T16:35:03.110Z,23.50
2018-09-25T16:37:36.880Z,25.93
2018-09-25T16:40:10.587Z,28.00
2018-09-25T16:42:44.652Z,24.33
2018-09-25T16:45:18.530Z,24.37
2018-09-25T16:47:52.298Z,26.33
2018-09-25T16:50:25.904Z,25.13
2018-09-25T16:52:59.682Z,28.30
2018-09-25T16:55:33.255Z,26.83
2018-09-25T16:58:07.021Z,27.67
2018-09-25T17:00:40.815Z,25.90
2018-09-25T17:03:14.658Z,27.13
2018-09-25T17:05:48.616Z,29.80
2018-09-25T17:08:22.317Z,27.33
2018-09-25T17:10:55.985Z,28.03
2018-09-25T17:13:29.872Z,28.43
2018-09-25T17:16:03.707Z,30.40
2018-09-25T17:18:37.709Z,25.87
2018-09-25T17:21:11.683Z,24.47
2018-09-25T17:23:45.297Z,26.97
2018-09-25T17:26:19.038Z,25.60
2018-09-25T17:28:52.795Z,26.37
2018-09-25T17:31:26.653Z,26.03
2018-09-25T17:34:00.508Z,26.37
2018-09-25T17:36:34.462Z,26.40
2018-09-25T17:39:08.273Z,26.53
2018-09-25T17:41:41.953Z,26.80
2018-09-25T17:44:15.748Z,30.17
2018-09-25T17:46:49.573Z,28.20
2018-09-25T17:49:23.317Z,26.60
2018-09-25T17:51:57.087Z,29.73
2018-09-25T17:54:30.717Z,26.60
2018-09-25T17:57:04.359Z,27.63
2018-09-25T17:59:38.560Z,27.10
2018-09-25T18:02:12.384Z,26.50
2018-09-25T18:04:46.063Z,31.47
2018-09-25T18:07:19.817Z,27.13
2018-09-25T18:09:53.497Z,28.53
2018-09-25T18:12:27.298Z,24.70
2018-09-25T18:15:01.191Z,25.47
2018-09-25T18:17:34.869Z,25.87
2018-09-25T18:20:09.054Z,26.50
2018-09-25T18:22:42.844Z,28.30
2018-09-25T18:25:16.610Z,25.63
2018-09-25T18:27:50.424Z,25.13
2018-09-25T18:30:24.235Z,24.70
2018-09-25T18:32:57.978Z,25.20
2018-09-25T18:35:31.778Z,24.60
2018-09-25T18:38:05.435Z,25.80
2018-09-25T18:40:39.087Z,25.90
2018-09-25T18:43:12.892Z,24.50
2018-09-25T18:45:46.721Z,29.50
2018-09-25T18:48:20.606Z,31.63
2018-09-25T18:50:54.286Z,25.50
2018-09-25T18:53:27.833Z,27.00
2018-09-25T18:56:01.831Z,27.57
2018-09-25T18:58:35.601Z,24.70
2018-09-25T19:01:09.611Z,29.77
2018-09-25T19:03:43.736Z,25.20
2018-09-25T19:06:17.395Z,25.40
2018-09-25T19:08:51.038Z,27.40
2018-09-25T19:11:24.975Z,27.37
2018-09-25T19:13:58.811Z,24.33
2018-09-25T19:16:32.690Z,28.47
2018-09-25T19:19:06.402Z,26.37
2018-09-25T19:21:40.211Z,28.00
2018-09-25T19:24:13.700Z,25.07
2018-09-25T19:26:47.394Z,30.73
2018-09-25T19:29:21.321Z,25.57
2018-09-25T19:31:55.082Z,28.63
2018-09-25T19:34:28.875Z,26.50
2018-09-25T19:37:02.684Z,25.83
2018-09-25T19:39:36.611Z,27.67
2018-09-25T19:42:10.514Z,28.67
2018-09-25T19:44:44.382Z,25.83
2018-09-25T19:47:18.181Z,26.03
2018-09-25T19:49:51.930Z,26.17
2018-09-25T19:52:25.678Z,26.47
2018-09-25T19:54:59.543Z,29.00
2018-09-25T19:57:33.391Z,27.67
2018-09-25T20:00:07.291Z,26.07
2018-09-25T20:02:41.098Z,26.03
2018-09-25T20:05:14.845Z,26.70
2018-09-25T20:07:48.454Z,31.03
2018-09-25T20:10:22.311Z,27.47
2018-09-25T20:12:56.065Z,31.73
2018-09-25T20:15:36.809Z,27.07
2018-09-25T20:18:10.611Z,29.33
2018-09-25T20:20:44.525Z,26.77
2018-09-25T20:23:18.318Z,27.00
2018-09-25T20:25:52.016Z,26.67
2018-09-25T20:28:25.822Z,26.43
2018-09-25T20:30:59.529Z,29.00
2018-09-25T20:33:33.446Z,26.70
2018-09-25T20:36:07.158Z,28.10
2018-09-25T20:38:41.049Z,28.90
2018-09-25T20:41:14.889Z,25.07
2018-09-25T20:43:48.588Z,27.70
2018-09-25T20:46:22.330Z,26.57
2018-09-25T20:48:56.115Z,28.37
2018-09-25T20:51:29.939Z,25.33
2018-09-25T20:54:03.813Z,26.23
2018-09-25T20:56:37.755Z,25.60
2018-09-25T20:59:11.578Z,27.17
2018-09-25T21:01:45.357Z,29.90
2018-09-25T21:04:19.179Z,27.53
2018-09-25T21:06:53.563Z,29.33
2018-09-25T21:09:27.400Z,29.80
2018-09-25T21:12:00.984Z,27.87
2018-09-25T21:14:34.631Z,25.57
2018-09-25T21:17:08.278Z,27.40
2018-09-25T21:19:42.016Z,25.80
2018-09-25T21:22:15.844Z,26.27
2018-09-25T21:24:49.611Z,27.90
2018-09-25T21:27:23.458Z,28.27
2018-09-25T21:29:56.938Z,28.87
2018-09-25T21:32:30.743Z,27.13
2018-09-25T21:35:04.509Z,29.60
2018-09-25T21:37:38.653Z,25.23
2018-09-25T21:40:12.582Z,26.90
2018-09-25T21:42:46.317Z,28.03
2018-09-25T21:45:20.077Z,25.10
2018-09-25T21:47:53.973Z,27.70
2018-09-25T21:50:27.814Z,26.77
2018-09-25T21:53:01.550Z,26.57
2018-09-25T21:55:35.229Z,25.53
2018-09-25T21:58:09.051Z,28.50
2018-09-25T22:00:42.765Z,33.33
2018-09-25T22:03:16.758Z,27.73
2018-09-25T22:05:50.733Z,26.70
2018-09-25T22:08:24.509Z,28.97
2018-09-25T22:10:58.286Z,29.53
2018-09-25T22:13:32.117Z,29.77
2018-09-25T22:16:05.853Z,25.67
2018-09-25T22:18:39.834Z,26.70
2018-09-25T22:21:13.435Z,30.80
2018-09-25T22:23:47.242Z,26.33
2018-09-25T22:26:21.031Z,26.87
2018-09-25T22:28:54.874Z,27.43
2018-09-25T22:31:28.501Z,26.00
2018-09-25T22:34:02.165Z,27.83
2018-09-25T22:36:35.848Z,30.73
2018-09-25T22:39:12.661Z,29.23
2018-09-25T22:41:46.326Z,27.00
2018-09-25T22:44:20.322Z,27.97
2018-09-25T22:46:54.110Z,29.43
2018-09-25T22:49:28.093Z,28.63
2018-09-25T22:52:01.777Z,27.50
2018-09-25T22:54:35.512Z,31.57
2018-09-25T22:57:09.191Z,28.07
2018-09-25T22:59:42.921Z,32.70
2018-09-25T23:02:16.577Z,29.37
2018-09-25T23:04:50.363Z,27.90
2018-09-25T23:07:24.061Z,26.27
2018-09-25T23:09:57.736Z,28.10
2018-09-25T23:12:31.405Z,29.50
2018-09-25T23:15:05.169Z,28.40
2018-09-25T23:17:38.873Z,28.97
2018-09-25T23:20:12.774Z,28.83
2018-09-25T23:22:46.505Z,33.60
2018-09-25T23:25:20.277Z,29.80
2018-09-25T23:27:53.953Z,29.93
2018-09-25T23:30:28.101Z,28.30
2018-09-25T23:33:01.856Z,30.07
2018-09-25T23:35:35.599Z,27.87
2018-09-25T23:38:09.333Z,28.17
2018-09-25T23:40:43.166Z,29.57
2018-09-25T23:44:14.655Z,27.23
2018-09-25T23:47:20.899Z,29.63
2018-09-25T23:49:57.611Z,29.40
2018-09-25T23:52:32.209Z,28.23
2018-09-25T23:55:07.801Z,26.70
2018-09-25T23:57:41.754Z,30.40
